Time;durP1;ratioP1;P1;durP2;ratioP2;P2;SDS_P1;SDS_P2;PMS_P1;PMS_P2;Temp;Humidity;BMP_temperature;BMP_pressure;BME280_temperature;BME280_humidity;BME280_pressure;Samples;Min_cycle;Max_cycle;Signal;HPM_P1;HPM_P2
2021/03/19 00:01:13;;;;;;;9.00;3.07;;;3.60;88.30;;;;;;5073363;28;20048;-68
2021/03/19 00:03:39;;;;;;;6.40;2.60;;;3.60;88.50;;;;;;5072422;28;20047;-69
2021/03/19 00:06:05;;;;;;;5.23;2.17;;;3.70;88.40;;;;;;5073058;28;20053;-69
2021/03/19 00:08:30;;;;;;;5.73;2.83;;;3.70;88.20;;;;;;5072696;28;20056;-69
2021/03/19 00:10:56;;;;;;;8.40;2.80;;;3.70;88.20;;;;;;5073058;28;20101;-68
2021/03/19 00:13:22;;;;;;;7.70;3.07;;;3.70;88.10;;;;;;5073155;28;20059;-69
2021/03/19 00:15:48;;;;;;;10.40;2.67;;;3.70;88.10;;;;;;5072267;28;20524;-69
2021/03/19 00:18:14;;;;;;;6.10;2.60;;;3.70;88.10;;;;;;5072921;28;20057;-69
2021/03/19 00:20:43;;;;;;;6.17;2.40;;;3.70;88.20;;;;;;5072989;28;20393;-69
2021/03/19 00:23:10;;;;;;;4.80;2.30;;;3.60;88.20;;;;;;5072289;28;20428;-69
2021/03/19 00:25:36;;;;;;;14.80;3.37;;;3.60;88.30;;;;;;5073184;28;20306;-69
2021/03/19 00:28:04;;;;;;;8.53;2.77;;;3.60;88.40;;;;;;5072543;28;20314;-68
2021/03/19 00:30:33;;;;;;;6.97;2.50;;;3.60;88.40;;;;;;5072287;28;20301;-68
2021/03/19 00:33:00;;;;;;;7.80;2.27;;;3.70;88.30;;;;;;5072658;28;20393;-69
2021/03/19 00:35:25;;;;;;;11.30;3.07;;;3.70;88.30;;;;;;5072510;28;20775;-69
2021/03/19 00:37:51;;;;;;;11.47;3.03;;;3.70;88.20;;;;;;5071677;28;20295;-69
2021/03/19 00:40:17;;;;;;;9.40;2.63;;;3.70;88.20;;;;;;5072630;28;20136;-68
2021/03/19 00:42:43;;;;;;;7.83;2.10;;;3.70;88.20;;;;;;5072459;28;20176;-69
2021/03/19 00:45:12;;;;;;;10.00;2.40;;;3.70;88.20;;;;;;5071096;28;20605;-69
2021/03/19 00:47:38;;;;;;;11.17;3.10;;;3.70;88.20;;;;;;5072343;28;20317;-69
2021/03/19 00:50:07;;;;;;;7.30;2.47;;;3.70;88.20;;;;;;5072281;28;20295;-69
2021/03/19 00:52:33;;;;;;;12.57;3.00;;;3.70;88.30;;;;;;5072007;28;20320;-69
2021/03/19 00:54:59;;;;;;;9.77;2.67;;;3.70;88.20;;;;;;5072414;28;20779;-69
2021/03/19 00:57:24;;;;;;;10.80;2.87;;;3.70;88.40;;;;;;5072301;28;20098;-68
2021/03/19 00:59:50;;;;;;;6.47;2.80;;;3.70;88.40;;;;;;5071554;28;20048;-69
2021/03/19 01:02:16;;;;;;;7.50;3.00;;;3.70;88.50;;;;;;5072123;28;20123;-69
2021/03/19 01:04:42;;;;;;;9.77;2.53;;;3.70;88.50;;;;;;5071184;28;20040;-68
2021/03/19 01:07:07;;;;;;;10.43;3.10;;;3.70;88.50;;;;;;5071994;28;20055;-68
2021/03/19 01:09:33;;;;;;;14.90;3.90;;;3.70;88.50;;;;;;5072269;28;20290;-68
2021/03/19 01:11:59;;;;;;;10.47;2.77;;;3.70;88.70;;;;;;5071275;28;20100;-68
2021/03/19 01:14:24;;;;;;;11.93;3.13;;;3.60;88.80;;;;;;5071908;28;20064;-69
2021/03/19 01:16:50;;;;;;;10.43;3.03;;;3.60;88.90;;;;;;5071637;28;20048;-69
2021/03/19 01:19:16;;;;;;;10.03;3.40;;;3.60;89.00;;;;;;5070986;28;20094;-69
2021/03/19 01:21:42;;;;;;;7.00;2.73;;;3.60;89.10;;;;;;5071965;28;20298;-68
2021/03/19 01:24:08;;;;;;;7.17;3.93;;;3.60;89.50;;;;;;5071775;28;20052;-69
2021/03/19 01:26:33;;;;;;;10.03;3.43;;;3.60;89.20;;;;;;5070963;28;20409;-69
2021/03/19 01:29:00;;;;;;;11.47;2.83;;;3.60;89.20;;;;;;5071684;28;20303;-68
2021/03/19 01:31:25;;;;;;;12.90;3.20;;;3.60;89.20;;;;;;5071564;28;20303;-69
2021/03/19 01:33:51;;;;;;;9.27;3.67;;;3.60;89.30;;;;;;5070780;28;20119;-69
2021/03/19 01:36:17;;;;;;;7.03;2.53;;;3.60;89.50;;;;;;5087330;28;20049;-68
2021/03/19 01:38:43;;;;;;;7.63;3.33;;;3.60;89.50;;;;;;5071568;28;20124;-69
2021/03/19 01:41:10;;;;;;;9.43;3.13;;;3.60;89.80;;;;;;5070887;28;20341;-69
2021/03/19 01:43:41;;;;;;;7.67;3.00;;;3.60;89.80;;;;;;5071790;28;20048;-68
2021/03/19 01:46:44;;;;;;;9.87;3.00;;;3.60;89.90;;;;;;5071402;28;20696;-68
2021/03/19 01:49:47;;;;;;;12.00;3.10;;;3.60;89.90;;;;;;5070795;28;20311;-69
2021/03/19 01:52:50;;;;;;;7.27;2.90;;;3.60;90.00;;;;;;5071364;28;20291;-68
2021/03/19 01:55:53;;;;;;;12.27;3.40;;;3.60;90.10;;;;;;5070686;28;20299;-68
2021/03/19 01:58:56;;;;;;;14.07;3.43;;;3.60;90.10;;;;;;5071178;28;20299;-68
2021/03/19 02:01:59;;;;;;;8.37;2.93;;;3.50;90.20;;;;;;5070676;28;20310;-68
2021/03/19 02:05:02;;;;;;;6.37;3.23;;;3.50;90.30;;;;;;5071192;28;20660;-69
2021/03/19 02:08:05;;;;;;;10.47;2.80;;;3.60;90.30;;;;;;5087287;28;20363;-69
2021/03/19 02:11:08;;;;;;;13.60;3.27;;;3.60;90.10;;;;;;5071580;28;20305;-68
2021/03/19 02:14:11;;;;;;;14.17;3.30;;;3.60;90.10;;;;;;5071431;28;20306;-68
2021/03/19 02:17:15;;;;;;;10.43;3.20;;;3.60;90.10;;;;;;5070585;28;20295;-68
2021/03/19 02:20:19;;;;;;;8.27;2.83;;;3.60;90.00;;;;;;5070982;28;20302;-69
2021/03/19 02:23:22;;;;;;;10.33;3.00;;;3.60;90.10;;;;;;5070380;28;20651;-68
2021/03/19 02:26:25;;;;;;;11.40;3.50;;;3.60;90.00;;;;;;5070841;28;20310;-68
2021/03/19 02:29:28;;;;;;;6.87;3.33;;;3.60;90.00;;;;;;5071151;28;20294;-68
2021/03/19 02:32:13;;;;;;;8.03;2.60;;;3.70;90.00;;;;;;5070951;28;20355;-68
2021/03/19 02:34:50;;;;;;;12.37;3.40;;;3.70;90.00;;;;;;5071263;28;20347;-69
2021/03/19 02:37:37;;;;;;;7.20;3.00;;;3.60;89.90;;;;;;5070548;28;20291;-68
2021/03/19 02:40:13;;;;;;;10.10;2.83;;;3.60;89.90;;;;;;5070600;28;20679;-68
2021/03/19 02:42:39;;;;;;;10.67;2.90;;;3.60;89.90;;;;;;5070952;28;20309;-68
2021/03/19 02:45:08;;;;;;;9.90;3.43;;;3.60;89.90;;;;;;5070322;28;20298;-68
2021/03/19 02:47:33;;;;;;;9.67;3.20;;;3.70;90.00;;;;;;5071000;28;20064;-68
2021/03/19 02:49:59;;;;;;;11.50;3.57;;;3.60;90.00;;;;;;5070952;28;20297;-68
2021/03/19 02:52:25;;;;;;;7.70;2.93;;;3.60;90.10;;;;;;5070150;28;20143;-68
2021/03/19 02:54:52;;;;;;;10.03;3.10;;;3.60;90.10;;;;;;5070843;28;20053;-68
2021/03/19 02:57:18;;;;;;;10.77;3.10;;;3.60;90.20;;;;;;5070023;28;20121;-68
2021/03/19 02:59:44;;;;;;;6.80;2.97;;;3.60;90.20;;;;;;5070758;28;20913;-68
2021/03/19 03:02:10;;;;;;;11.23;2.73;;;3.60;90.20;;;;;;5070841;28;20299;-68
2021/03/19 03:04:36;;;;;;;7.67;3.03;;;3.60;90.20;;;;;;5070387;28;20493;-68
2021/03/19 03:07:01;;;;;;;8.87;3.33;;;3.60;90.40;;;;;;5070599;28;20093;-68
2021/03/19 03:09:30;;;;;;;9.00;2.83;;;3.60;90.40;;;;;;5073941;28;20078;-68
2021/03/19 03:11:57;;;;;;;10.13;3.00;;;3.60;90.20;;;;;;5073751;28;20040;-68
2021/03/19 03:14:26;;;;;;;8.60;2.87;;;3.60;90.20;;;;;;5074435;28;20345;-69
2021/03/19 03:16:52;;;;;;;11.07;2.70;;;3.60;90.20;;;;;;5074219;28;20384;-69
2021/03/19 03:19:21;;;;;;;11.60;3.10;;;3.50;90.10;;;;;;5073572;28;20295;-68
2021/03/19 03:21:47;;;;;;;13.80;3.30;;;3.50;90.10;;;;;;5074092;28;20844;-68
2021/03/19 03:24:15;;;;;;;12.43;3.20;;;3.40;90.20;;;;;;5074063;28;20345;-68
2021/03/19 03:26:42;;;;;;;9.70;3.30;;;3.30;90.20;;;;;;5073435;28;20329;-68
2021/03/19 03:29:10;;;;;;;14.23;4.03;;;3.30;90.30;;;;;;5073831;28;20330;-68
2021/03/19 03:31:39;;;;;;;10.33;3.70;;;3.30;90.30;;;;;;5074259;28;20412;-68
2021/03/19 03:34:05;;;;;;;7.73;3.13;;;3.20;90.30;;;;;;5073182;28;20385;-68
2021/03/19 03:36:33;;;;;;;8.53;3.10;;;3.20;90.40;;;;;;5074051;28;20837;-68
2021/03/19 03:39:00;;;;;;;13.87;3.13;;;3.20;90.40;;;;;;5073848;28;20714;-68
2021/03/19 03:41:27;;;;;;;13.53;3.97;;;3.20;90.40;;;;;;5073420;28;20349;-68
2021/03/19 03:43:54;;;;;;;9.47;3.47;;;3.30;90.40;;;;;;5073744;28;20325;-68
2021/03/19 03:46:25;;;;;;;6.93;3.40;;;3.30;90.40;;;;;;5073665;28;20333;-68
2021/03/19 03:48:53;;;;;;;13.57;3.50;;;3.30;90.40;;;;;;5073396;28;20394;-68
2021/03/19 03:51:19;;;;;;;9.83;3.57;;;3.30;90.40;;;;;;5073619;28;20400;-69
2021/03/19 03:53:45;;;;;;;11.03;3.70;;;3.30;90.40;;;;;;5073086;28;20350;-68
2021/03/19 03:56:15;;;;;;;14.77;3.87;;;3.30;90.30;;;;;;5073511;28;20326;-68
2021/03/19 03:58:41;;;;;;;10.47;3.60;;;3.40;90.40;;;;;;5073408;28;20326;-68
2021/03/19 04:01:08;;;;;;;11.13;3.67;;;3.40;90.30;;;;;;5072977;28;20326;-68
2021/03/19 04:03:35;;;;;;;9.70;3.47;;;3.30;90.40;;;;;;5073710;28;20330;-68
2021/03/19 04:06:01;;;;;;;10.60;4.43;;;3.30;90.40;;;;;;5073208;28;20378;-68
2021/03/19 04:08:29;;;;;;;9.57;4.03;;;3.30;90.40;;;;;;5072721;28;20389;-68
2021/03/19 04:10:58;;;;;;;13.10;3.97;;;3.40;90.40;;;;;;5073117;28;20386;-68
2021/03/19 04:13:27;;;;;;;6.87;4.03;;;3.40;90.30;;;;;;5073164;28;20331;-69
2021/03/19 04:15:53;;;;;;;10.07;3.53;;;3.40;90.30;;;;;;5072326;28;20326;-68
2021/03/19 04:18:21;;;;;;;9.37;3.70;;;3.40;90.20;;;;;;5073134;28;20334;-68
2021/03/19 04:20:50;;;;;;;14.10;4.00;;;3.40;90.20;;;;;;5071907;28;20326;-68
2021/03/19 04:23:16;;;;;;;9.90;4.07;;;3.40;90.20;;;;;;5072528;28;20398;-68
2021/03/19 04:25:43;;;;;;;11.60;4.43;;;3.40;90.20;;;;;;5072898;28;20331;-68
2021/03/19 04:28:14;;;;;;;13.90;4.17;;;3.40;90.30;;;;;;5072881;28;20361;-68
2021/03/19 04:30:42;;;;;;;10.70;3.42;;;3.30;90.30;;;;;;5072093;28;20326;-68
2021/03/19 04:33:15;;;;;;;10.03;3.70;;;3.30;90.40;;;;;;5072833;28;20531;-68
2021/03/19 04:35:42;;;;;;;9.33;3.73;;;3.30;90.40;;;;;;5072141;28;20369;-69
2021/03/19 04:38:12;;;;;;;10.07;3.90;;;3.30;90.40;;;;;;5072712;28;20338;-68
2021/03/19 04:40:42;;;;;;;11.10;3.57;;;3.30;90.50;;;;;;5073041;28;20343;-68
2021/03/19 04:43:08;;;;;;;14.93;3.73;;;3.30;90.40;;;;;;5071907;28;20323;-68
2021/03/19 04:45:38;;;;;;;10.23;3.87;;;3.20;90.50;;;;;;5072681;28;20383;-68
2021/03/19 04:48:04;;;;;;;9.90;3.93;;;3.30;90.60;;;;;;5072347;28;20389;-68
2021/03/19 04:50:31;;;;;;;7.70;3.27;;;3.30;90.50;;;;;;5071529;28;20334;-68
2021/03/19 04:52:57;;;;;;;9.07;3.97;;;3.20;90.40;;;;;;5072276;28;20342;-68
2021/03/19 04:55:23;;;;;;;12.50;4.10;;;3.20;90.40;;;;;;5072094;28;20700;-68
2021/03/19 04:57:49;;;;;;;13.17;4.10;;;3.10;90.40;;;;;;5071108;28;20348;-68
2021/03/19 05:00:16;;;;;;;14.43;4.73;;;3.10;90.50;;;;;;5071841;28;20325;-68
2021/03/19 05:02:46;;;;;;;10.47;4.20;;;3.10;90.50;;;;;;5071916;28;20717;-68
2021/03/19 05:05:17;;;;;;;10.30;4.40;;;3.10;90.60;;;;;;5071199;28;20333;-68
2021/03/19 05:07:44;;;;;;;11.23;4.40;;;3.10;90.60;;;;;;5071537;28;20330;-68
2021/03/19 05:10:12;;;;;;;13.33;4.67;;;3.10;90.60;;;;;;5071455;28;20067;-68
2021/03/19 05:12:38;;;;;;;10.40;4.37;;;3.10;90.60;;;;;;5071064;28;20326;-68
2021/03/19 05:15:05;;;;;;;10.67;4.43;;;3.10;90.50;;;;;;5071481;28;20374;-68
2021/03/19 05:17:33;;;;;;;10.53;4.97;;;3.10;90.50;;;;;;5072196;28;20703;-68
2021/03/19 05:20:00;;;;;;;15.60;5.07;;;3.10;90.60;;;;;;5070690;28;20378;-68
2021/03/19 05:22:26;;;;;;;12.50;4.90;;;3.10;90.60;;;;;;5071220;28;20710;-68
2021/03/19 05:24:53;;;;;;;12.77;4.40;;;3.10;90.60;;;;;;5069718;28;20329;-69
2021/03/19 05:27:19;;;;;;;13.83;4.30;;;3.10;90.60;;;;;;5070992;28;20401;-69
2021/03/19 05:29:46;;;;;;;12.23;4.70;;;3.10;90.50;;;;;;5071296;28;20386;-68
2021/03/19 05:32:12;;;;;;;12.77;5.43;;;3.10;90.50;;;;;;5070570;28;20341;-68
2021/03/19 05:34:39;;;;;;;12.17;4.73;;;3.10;90.50;;;;;;5071407;28;20345;-68
2021/03/19 05:37:05;;;;;;;11.73;4.83;;;3.10;90.50;;;;;;5071468;28;20327;-69
2021/03/19 05:39:31;;;;;;;14.33;5.73;;;3.10;90.50;;;;;;5070826;28;20365;-68
2021/03/19 05:41:58;;;;;;;9.57;4.40;;;3.10;90.50;;;;;;5071198;28;20333;-68
2021/03/19 05:44:25;;;;;;;11.93;4.90;;;3.10;90.50;;;;;;5070988;28;20345;-68
2021/03/19 05:46:59;;;;;;;8.97;4.50;;;3.10;90.50;;;;;;5070305;28;20382;-69
2021/03/19 05:49:28;;;;;;;19.80;6.07;;;3.10;90.50;;;;;;5071596;28;20321;-69
2021/03/19 05:51:57;;;;;;;14.97;5.70;;;3.10;90.40;;;;;;5071543;28;20751;-68
2021/03/19 05:54:34;;;;;;;14.23;4.70;;;3.10;90.50;;;;;;5071166;28;20302;-69
2021/03/19 05:57:03;;;;;;;12.70;5.53;;;3.10;90.50;;;;;;5071355;28;20330;-69
2021/03/19 05:59:30;;;;;;;13.57;4.97;;;3.10;90.50;;;;;;5071631;28;20861;-68
2021/03/19 06:01:57;;;;;;;12.70;5.83;;;3.10;90.50;;;;;;5070718;28;20386;-69
2021/03/19 06:04:31;;;;;;;14.53;5.40;;;3.10;90.40;;;;;;5071477;28;20314;-68
2021/03/19 06:07:03;;;;;;;8.73;4.93;;;3.10;90.50;;;;;;5071281;28;20388;-69
2021/03/19 06:09:35;;;;;;;10.57;5.13;;;3.10;90.50;;;;;;5071052;28;20338;-69
2021/03/19 06:12:07;;;;;;;11.90;6.30;;;3.10;90.50;;;;;;5070906;28;20326;-69
2021/03/19 06:14:54;;;;;;;12.77;8.87;;;3.10;90.40;;;;;;5070767;28;20123;-69
2021/03/19 06:17:20;;;;;;;13.77;7.90;;;3.20;90.50;;;;;;5071162;28;20374;-69
2021/03/19 06:19:55;;;;;;;11.83;6.53;;;3.20;90.60;;;;;;5070855;28;20331;-68
2021/03/19 06:22:41;;;;;;;14.10;6.13;;;3.30;90.60;;;;;;5070436;28;20830;-69
2021/03/19 06:25:21;;;;;;;16.13;8.50;;;3.20;90.60;;;;;;5071200;28;20322;-69
2021/03/19 06:28:33;;;;;;;13.40;6.70;;;3.30;90.60;;;;;;5070036;28;20342;-69
2021/03/19 06:31:29;;;;;;;14.77;6.37;;;3.30;90.60;;;;;;5070159;28;20289;-69
2021/03/19 06:34:18;;;;;;;21.70;9.87;;;3.30;90.60;;;;;;5070926;28;20305;-69
2021/03/19 06:37:05;;;;;;;16.00;6.70;;;3.40;90.70;;;;;;5070341;28;20286;-68
2021/03/19 06:39:54;;;;;;;9.93;5.53;;;3.50;90.60;;;;;;5069786;28;20802;-68
2021/03/19 06:42:41;;;;;;;16.47;7.67;;;3.60;90.60;;;;;;5070061;28;20370;-69
2021/03/19 06:45:26;;;;;;;12.03;5.97;;;3.70;90.60;;;;;;5074183;28;20278;-69
2021/03/19 06:48:29;;;;;;;16.47;7.47;;;3.80;90.40;;;;;;5073127;28;20803;-69
2021/03/19 06:51:36;;;;;;;11.40;5.53;;;3.90;90.30;;;;;;5073092;28;20294;-69
2021/03/19 06:54:25;;;;;;;18.33;6.33;;;4.00;90.20;;;;;;5073521;28;20374;-69
2021/03/19 06:57:14;;;;;;;11.77;5.90;;;4.20;90.30;;;;;;5072689;28;20349;-69
2021/03/19 07:00:02;;;;;;;12.70;6.17;;;4.40;90.20;;;;;;5073743;28;20300;-69
2021/03/19 07:03:04;;;;;;;17.93;5.53;;;4.90;90.10;;;;;;5073629;28;20325;-69
2021/03/19 07:06:14;;;;;;;11.75;5.47;;;5.10;88.90;;;;;;5073820;28;20290;-69
2021/03/19 07:09:15;;;;;;;11.47;5.90;;;5.50;87.70;;;;;;5073134;28;20139;-69
2021/03/19 07:11:47;;;;;;;11.10;5.20;;;5.90;87.30;;;;;;5073529;28;20355;-70
2021/03/19 07:15:01;;;;;;;13.13;5.23;;;6.20;86.60;;;;;;5073450;28;20290;-70
2021/03/19 07:17:56;;;;;;;52.20;8.23;;;6.50;84.90;;;;;;5072453;28;20317;-70
2021/03/19 07:20:26;;;;;;;11.33;4.90;;;6.50;84.60;;;;;;5074035;28;20307;-69
2021/03/19 07:23:17;;;;;;;8.00;5.03;;;6.30;83.60;;;;;;5073879;28;20287;-68
2021/03/19 07:26:15;;;;;;;11.40;4.83;;;6.10;83.60;;;;;;5071856;28;20911;-68
2021/03/19 07:29:17;;;;;;;10.87;4.93;;;5.90;83.90;;;;;;5072724;28;20314;-68
2021/03/19 07:32:06;;;;;;;7.97;4.65;;;5.80;84.50;;;;;;5072952;28;20298;-68
2021/03/19 07:34:49;;;;;;;9.13;4.87;;;5.70;83.60;;;;;;5074130;28;20044;-68
2021/03/19 07:37:35;;;;;;;13.10;5.20;;;5.70;84.30;;;;;;5073968;28;20286;-69
2021/03/19 07:40:35;;;;;;;9.90;5.07;;;5.70;84.50;;;;;;5072181;28;20294;-69
2021/03/19 07:43:29;;;;;;;9.83;5.50;;;5.90;84.10;;;;;;5072702;28;20723;-68
2021/03/19 07:46:15;;;;;;;8.90;4.43;;;6.00;83.70;;;;;;5071866;28;20279;-69
2021/03/19 07:49:22;;;;;;;8.50;4.87;;;6.10;83.00;;;;;;5072596;28;20685;-68
2021/03/19 07:52:21;;;;;;;8.00;4.57;;;6.00;82.00;;;;;;5072893;28;20291;-68
2021/03/19 07:55:13;;;;;;;9.33;5.00;;;5.80;82.80;;;;;;5072552;28;20291;-69
2021/03/19 07:58:28;;;;;;;7.57;4.90;;;5.80;83.10;;;;;;5072599;28;20279;-68
2021/03/19 08:01:33;;;;;;;8.40;4.40;;;5.70;83.20;;;;;;5065965;28;20135;-69
2021/03/19 08:04:49;;;;;;;9.07;5.13;;;5.90;82.70;;;;;;5052506;28;20383;-68
2021/03/19 08:07:58;;;;;;;10.13;4.47;;;5.90;82.50;;;;;;5051796;28;20648;-69
2021/03/19 08:11:03;;;;;;;12.57;4.77;;;6.30;82.30;;;;;;5052295;28;20295;-68
2021/03/19 08:14:13;;;;;;;10.50;4.77;;;6.70;80.50;;;;;;5051366;28;20283;-69
2021/03/19 08:17:02;;;;;;;7.10;4.63;;;6.60;80.30;;;;;;5068457;28;20628;-66
2021/03/19 08:20:08;;;;;;;12.00;5.13;;;6.50;80.60;;;;;;5071007;28;20278;-66
2021/03/19 08:23:30;;;;;;;9.93;4.80;;;6.20;80.60;;;;;;5071046;28;20637;-67
2021/03/19 08:27:07;;;;;;;6.75;4.20;;;6.30;79.90;;;;;;5071670;28;20314;-68
2021/03/19 08:30:09;;;;;;;9.83;4.00;;;6.50;79.00;;;;;;5065016;28;20048;-67
2021/03/19 08:33:18;;;;;;;5.68;2.88;;;6.50;79.70;;;;;;5071836;28;20365;-67
2021/03/19 08:36:32;;;;;;;6.87;3.23;;;6.90;77.10;;;;;;5071172;28;20053;-68
2021/03/19 08:39:39;;;;;;;5.03;3.27;;;7.50;74.60;;;;;;5071740;28;20369;-67
2021/03/19 08:42:37;;;;;;;6.60;3.27;;;8.10;72.40;;;;;;5070942;28;20333;-67
2021/03/19 08:45:26;;;;;;;40.17;5.87;;;8.50;71.70;;;;;;5071587;28;20275;-68
2021/03/19 08:48:15;;;;;;;5.20;2.97;;;8.50;71.30;;;;;;5071372;28;20335;-68
2021/03/19 08:51:27;;;;;;;6.37;2.80;;;8.40;70.80;;;;;;5070925;28;20370;-68
2021/03/19 08:54:13;;;;;;;3.88;2.30;;;8.20;69.60;;;;;;5071499;28;20794;-68
2021/03/19 08:57:05;;;;;;;5.23;2.80;;;8.00;70.60;;;;;;5070525;28;20139;-68
2021/03/19 08:59:52;;;;;;;;;;;7.90;70.80;;;;;;5071536;28;20279;-68
2021/03/19 09:02:45;;;;;;;7.27;3.27;;;8.10;68.60;;;;;;5071707;28;19928;-68
2021/03/19 09:05:22;;;;;;;5.10;2.30;;;8.80;69.80;;;;;;5071051;28;20303;-68
2021/03/19 09:08:19;;;;;;;5.87;3.00;;;9.20;67.80;;;;;;5071802;28;20311;-68
2021/03/19 09:11:11;;;;;;;4.57;2.43;;;9.60;65.80;;;;;;5070167;28;20314;-69
2021/03/19 09:13:38;;;;;;;7.33;2.63;;;9.60;65.30;;;;;;5072154;28;20643;-68
2021/03/19 09:16:42;;;;;;;3.80;1.97;;;9.40;65.00;;;;;;5071831;28;20297;-69
2021/03/19 09:19:43;;;;;;;4.50;1.70;;;9.10;62.50;;;;;;5071030;28;20777;-68
2021/03/19 09:22:38;;;;;;;4.93;2.20;;;8.60;63.50;;;;;;5071297;28;20342;-67
2021/03/19 09:25:36;;;;;;;4.77;2.20;;;8.40;64.60;;;;;;5068998;28;20818;-68
2021/03/19 09:28:17;;;;;;;3.90;1.87;;;8.30;64.50;;;;;;5071357;28;20314;-68
2021/03/19 09:31:25;;;;;;;3.63;1.53;;;8.00;63.90;;;;;;5070230;28;20287;-67
2021/03/19 09:34:39;;;;;;;5.57;1.90;;;7.90;65.50;;;;;;5070571;28;20786;-68
2021/03/19 09:37:31;;;;;;;5.37;2.07;;;7.90;67.10;;;;;;5070587;28;20286;-67
2021/03/19 09:40:38;;;;;;;4.55;2.25;;;7.70;66.10;;;;;;5069707;28;20401;-68
2021/03/19 09:43:04;;;;;;;6.23;2.00;;;7.40;65.40;;;;;;5071239;28;20052;-68
2021/03/19 09:45:33;;;;;;;8.50;2.60;;;7.30;66.70;;;;;;5070925;28;20844;-67
2021/03/19 09:48:15;;;;;;;4.00;2.40;;;7.30;67.40;;;;;;5071192;28;20066;-67
2021/03/19 09:50:54;;;;;;;4.97;2.50;;;7.40;66.70;;;;;;5071073;28;20305;-67
2021/03/19 09:53:20;;;;;;;6.07;2.43;;;7.50;66.70;;;;;;5070342;28;20313;-68
2021/03/19 09:55:49;;;;;;;3.43;2.30;;;7.50;67.30;;;;;;5071302;28;20733;-67
2021/03/19 09:58:32;;;;;;;10.23;2.57;;;7.50;68.20;;;;;;5071473;28;20056;-67
2021/03/19 10:01:03;;;;;;;3.53;2.07;;;7.70;68.30;;;;;;5070595;28;20291;-67
2021/03/19 10:03:47;;;;;;;3.53;1.90;;;7.70;66.70;;;;;;5071532;28;20301;-67
2021/03/19 10:06:45;;;;;;;4.40;1.80;;;7.70;66.60;;;;;;5069696;28;20049;-67
2021/03/19 10:09:48;;;;;;;7.23;2.20;;;7.80;66.30;;;;;;5069898;28;20299;-67
2021/03/19 10:12:36;;;;;;;3.57;1.73;;;7.90;66.40;;;;;;5070325;28;20287;-67
2021/03/19 10:15:27;;;;;;;5.60;2.57;;;7.90;65.60;;;;;;5069452;28;20381;-67
2021/03/19 10:18:27;;;;;;;3.87;1.90;;;7.90;65.50;;;;;;5071768;28;20293;-67
2021/03/19 10:21:21;;;;;;;4.17;1.97;;;7.90;64.80;;;;;;5073603;28;20620;-67
2021/03/19 10:24:07;;;;;;;4.77;2.07;;;7.80;65.90;;;;;;5074260;28;20275;-67
2021/03/19 10:27:08;;;;;;;7.17;2.60;;;7.70;65.60;;;;;;5074925;28;20302;-67
2021/03/19 10:29:38;;;;;;;2.43;1.83;;;7.70;66.00;;;;;;5074222;28;20306;-67
2021/03/19 10:32:16;;;;;;;3.60;2.10;;;7.70;65.10;;;;;;5075641;28;20332;-67
2021/03/19 10:35:17;;;;;;;3.53;1.87;;;7.60;65.20;;;;;;5073102;28;20360;-67
2021/03/19 10:38:13;;;;;;;8.67;2.60;;;7.60;66.20;;;;;;5073673;28;20294;-67
2021/03/19 10:41:07;;;;;;;7.20;2.40;;;7.60;66.00;;;;;;5074006;28;20283;-67
2021/03/19 10:43:49;;;;;;;3.77;1.97;;;7.60;65.60;;;;;;5074237;28;20392;-67
2021/03/19 10:46:51;;;;;;;6.85;1.95;;;7.70;66.00;;;;;;5074659;28;20293;-66
2021/03/19 10:49:19;;;;;;;;;;;7.80;66.00;;;;;;5073932;28;20067;-66
2021/03/19 10:51:58;;;;;;;4.77;1.30;;;7.90;63.90;;;;;;5074535;28;19925;-66
2021/03/19 10:54:32;;;;;;;5.17;1.30;;;7.90;66.00;;;;;;5074391;28;20294;-66
2021/03/19 10:57:15;;;;;;;3.17;1.97;;;8.00;65.10;;;;;;5074183;28;20295;-66
2021/03/19 10:59:41;;;;;;;2.63;0.90;;;8.10;64.70;;;;;;5074397;28;20303;-66
2021/03/19 11:02:14;;;;;;;3.30;1.00;;;8.20;64.80;;;;;;5074388;28;20309;-66
2021/03/19 11:04:43;;;;;;;1.30;0.83;;;8.30;64.20;;;;;;5073619;28;20298;-66
2021/03/19 11:07:33;;;;;;;2.17;0.97;;;8.30;63.10;;;;;;5073800;28;20298;-66
2021/03/19 11:10:24;;;;;;;1.40;0.70;;;8.40;62.50;;;;;;5073173;28;20393;-66
2021/03/19 11:12:54;;;;;;;3.67;1.00;;;8.40;60.70;;;;;;5073908;28;20778;-66
2021/03/19 11:15:29;;;;;;;2.57;1.17;;;8.50;61.10;;;;;;5073905;28;20646;-65
2021/03/19 11:18:33;;;;;;;2.67;1.37;;;8.50;61.40;;;;;;5073378;28;20778;-65
2021/03/19 11:21:05;;;;;;;3.20;1.00;;;8.60;60.00;;;;;;5074182;28;20290;-66
2021/03/19 11:23:35;;;;;;;3.13;1.00;;;8.70;60.70;;;;;;5074166;28;20290;-66
2021/03/19 11:26:13;;;;;;;2.10;1.07;;;8.80;60.30;;;;;;5073712;28;20040;-65
2021/03/19 11:28:42;;;;;;;3.20;0.93;;;8.80;59.70;;;;;;5072840;28;20309;-66
2021/03/19 11:31:13;;;;;;;2.03;0.80;;;8.80;60.40;;;;;;5073129;28;20294;-66
2021/03/19 11:34:13;;;;;;;3.30;1.30;;;8.80;59.40;;;;;;5073846;28;20298;-66
2021/03/19 11:36:57;;;;;;;2.77;0.77;;;8.80;57.90;;;;;;5073943;28;20052;-66
2021/03/19 11:39:50;;;;;;;2.00;1.10;;;8.80;57.70;;;;;;5072087;28;20303;-66
2021/03/19 11:42:18;;;;;;;2.10;0.80;;;8.70;58.20;;;;;;5073569;28;20797;-66
2021/03/19 11:44:47;;;;;;;3.23;1.20;;;8.60;58.30;;;;;;5072983;28;20290;-66
2021/03/19 11:47:23;;;;;;;2.53;1.00;;;8.70;58.30;;;;;;5073152;28;20309;-66
2021/03/19 11:50:10;;;;;;;2.20;0.80;;;8.80;58.80;;;;;;5073402;28;20291;-67
2021/03/19 11:53:01;;;;;;;1.50;0.70;;;8.90;57.10;;;;;;5071938;28;20305;-66
2021/03/19 11:55:50;;;;;;;2.03;0.80;;;8.90;56.30;;;;;;5072593;28;20283;-66
2021/03/19 11:58:36;;;;;;;1.87;0.83;;;8.90;57.30;;;;;;5058864;28;20287;-66
2021/03/19 12:01:04;;;;;;;3.20;0.80;;;8.90;57.50;;;;;;5072243;28;20326;-66
2021/03/19 12:03:41;;;;;;;3.83;0.70;;;8.90;57.40;;;;;;5073954;28;20303;-66
2021/03/19 12:06:10;;;;;;;0.90;0.50;;;9.00;57.80;;;;;;5072505;28;20306;-68
2021/03/19 12:08:38;;;;;;;2.47;0.70;;;8.90;56.70;;;;;;5072955;28;20643;-67
2021/03/19 12:11:32;;;;;;;2.70;0.97;;;8.90;56.90;;;;;;5072315;28;20310;-67
2021/03/19 12:13:58;;;;;;;2.67;0.90;;;8.90;56.50;;;;;;5072523;28;20368;-66
2021/03/19 12:16:25;;;;;;;3.13;0.80;;;8.90;57.10;;;;;;5073141;28;20294;-66
2021/03/19 12:18:51;;;;;;;1.03;0.60;;;9.00;57.20;;;;;;5072877;28;20716;-66
2021/03/19 12:21:18;;;;;;;1.87;0.60;;;9.00;57.00;;;;;;5071950;28;20294;-66
2021/03/19 12:23:43;;;;;;;3.80;0.70;;;8.90;56.70;;;;;;5072666;28;20344;-67
2021/03/19 12:26:09;;;;;;;4.47;0.90;;;8.80;57.20;;;;;;5072342;28;20303;-67
2021/03/19 12:28:35;;;;;;;1.03;0.60;;;8.80;57.80;;;;;;5072326;28;20067;-67
2021/03/19 12:31:00;;;;;;;1.13;0.40;;;8.70;57.50;;;;;;5072877;28;20128;-67
2021/03/19 12:33:32;;;;;;;1.63;0.43;;;8.70;56.80;;;;;;5072351;28;20044;-67
2021/03/19 12:35:58;;;;;;;0.83;0.53;;;8.80;56.80;;;;;;5071875;28;20438;-66
2021/03/19 12:38:24;;;;;;;1.43;0.60;;;8.90;55.90;;;;;;5072501;28;20678;-67
2021/03/19 12:40:50;;;;;;;1.60;0.63;;;8.90;55.70;;;;;;5071662;28;20060;-68
2021/03/19 12:43:16;;;;;;;0.80;0.43;;;9.00;55.30;;;;;;5071753;28;20299;-66
2021/03/19 12:45:42;;;;;;;2.93;0.50;;;9.00;55.30;;;;;;5072675;28;20131;-67
2021/03/19 12:48:08;;;;;;;1.70;0.50;;;9.00;55.20;;;;;;5071352;28;20131;-67
2021/03/19 12:50:35;;;;;;;1.10;0.60;;;9.00;55.60;;;;;;5072649;28;20102;-67
2021/03/19 12:53:03;;;;;;;1.87;0.47;;;9.10;55.60;;;;;;5071995;28;20842;-67
2021/03/19 12:55:32;;;;;;;0.87;0.40;;;9.20;55.40;;;;;;5059424;28;20393;-66
2021/03/19 12:57:58;;;;;;;1.17;0.40;;;9.30;55.60;;;;;;5066198;28;20294;-68
2021/03/19 13:00:29;;;;;;;1.80;0.60;;;9.30;56.00;;;;;;5065553;28;20306;-67
2021/03/19 13:02:56;;;;;;;5.68;0.77;;;9.40;54.50;;;;;;5066747;28;20079;-67
2021/03/19 13:05:43;;;;;;;0.93;0.40;;;9.40;55.50;;;;;;5066625;28;20051;-66
2021/03/19 13:08:08;;;;;;;1.53;0.40;;;9.40;55.20;;;;;;5075223;28;20318;-65
2021/03/19 13:10:54;;;;;;;2.30;0.40;;;9.50;55.20;;;;;;5068764;28;20340;-66
2021/03/19 13:13:20;;;;;;;1.27;0.50;;;9.60;54.60;;;;;;5068651;28;20291;-66
2021/03/19 13:15:46;;;;;;;1.20;0.50;;;9.60;53.70;;;;;;5068366;28;20179;-66
2021/03/19 13:18:13;;;;;;;3.13;0.60;;;9.60;54.50;;;;;;5068185;28;20327;-66
2021/03/19 13:20:39;;;;;;;0.50;0.40;;;9.60;54.80;;;;;;5068838;28;20306;-65
2021/03/19 13:23:06;;;;;;;2.50;0.60;;;9.60;53.40;;;;;;5068861;28;20290;-65
2021/03/19 13:25:34;;;;;;;2.30;0.37;;;9.50;53.30;;;;;;5067916;28;20298;-66
2021/03/19 13:28:01;;;;;;;2.27;0.93;;;9.50;52.80;;;;;;5068340;28;20346;-66
2021/03/19 13:30:30;;;;;;;1.13;0.50;;;9.50;53.30;;;;;;5067315;28;20295;-66
2021/03/19 13:32:57;;;;;;;0.63;0.40;;;9.50;53.00;;;;;;5067954;28;20382;-66
2021/03/19 13:35:37;;;;;;;0.67;0.30;;;9.50;52.70;;;;;;5067685;28;20783;-66
2021/03/19 13:38:04;;;;;;;0.47;0.40;;;9.50;52.10;;;;;;5067564;28;20295;-67
2021/03/19 13:40:31;;;;;;;1.13;0.40;;;9.60;53.30;;;;;;5068177;28;20305;-66
2021/03/19 13:42:58;;;;;;;0.60;0.40;;;9.60;53.90;;;;;;5068024;28;20671;-67
2021/03/19 13:45:24;;;;;;;1.33;0.50;;;9.60;54.40;;;;;;5067610;28;20295;-66
2021/03/19 13:47:50;;;;;;;0.33;0.30;;;9.60;53.70;;;;;;5068277;28;20322;-67
2021/03/19 13:50:18;;;;;;;0.93;0.37;;;9.50;54.10;;;;;;5068144;28;20390;-66